sensor_id;sensor_type;location;lat;lon;timestamp;temperature;humidity
43858;DHT22;29507;51.284;5.758;2023-02-15T00:01:27;0.70;99.90
43858;DHT22;29507;51.284;5.758;2023-02-15T00:03:53;0.60;99.90
43858;DHT22;29507;51.284;5.758;2023-02-15T00:06:19;0.60;99.90
43858;DHT22;29507;51.284;5.758;2023-02-15T00:08:44;0.50;99.90
43858;DHT22;29507;51.284;5.758;2023-02-15T00:11:12;0.50;99.90
43858;DHT22;29507;51.284;5.758;2023-02-15T00:13:38;0.50;99.90
43858;DHT22;29507;51.284;5.758;2023-02-15T00:16:10;0.60;99.90
43858;DHT22;29507;51.284;5.758;2023-02-15T00:18:38;0.60;99.90
43858;DHT22;29507;51.284;5.758;2023-02-15T00:21:05;0.60;99.90
43858;DHT22;29507;51.284;5.758;2023-02-15T00:23:31;0.60;99.90
43858;DHT22;29507;51.284;5.758;2023-02-15T00:26:08;0.60;99.90
43858;DHT22;29507;51.284;5.758;2023-02-15T00:28:34;0.50;99.90
43858;DHT22;29507;51.284;5.758;2023-02-15T00:31:18;0.50;99.90
43858;DHT22;29507;51.284;5.758;2023-02-15T00:33:43;0.40;99.90
43858;DHT22;29507;51.284;5.758;2023-02-15T00:36:09;0.40;99.90
43858;DHT22;29507;51.284;5.758;2023-02-15T00:38:35;0.30;99.90
43858;DHT22;29507;51.284;5.758;2023-02-15T00:41:03;0.20;99.90
43858;DHT22;29507;51.284;5.758;2023-02-15T00:43:30;0.20;99.90
43858;DHT22;29507;51.284;5.758;2023-02-15T00:45:56;0.10;99.90
43858;DHT22;29507;51.284;5.758;2023-02-15T00:48:22;0.10;99.90
43858;DHT22;29507;51.284;5.758;2023-02-15T00:50:53;0.10;99.90
43858;DHT22;29507;51.284;5.758;2023-02-15T00:53:20;0.10;99.90
43858;DHT22;29507;51.284;5.758;2023-02-15T00:55:45;0.20;99.90
43858;DHT22;29507;51.284;5.758;2023-02-15T00:58:12;0.30;99.90
43858;DHT22;29507;51.284;5.758;2023-02-15T01:00:39;0.30;99.90
43858;DHT22;29507;51.284;5.758;2023-02-15T01:03:05;0.30;99.90
43858;DHT22;29507;51.284;5.758;2023-02-15T01:05:31;0.30;99.90
43858;DHT22;29507;51.284;5.758;2023-02-15T01:07:58;0.30;99.90
43858;DHT22;29507;51.284;5.758;2023-02-15T01:10:24;0.30;99.90
43858;DHT22;29507;51.284;5.758;2023-02-15T01:12:51;0.30;99.90
43858;DHT22;29507;51.284;5.758;2023-02-15T01:15:17;0.30;99.90
43858;DHT22;29507;51.284;5.758;2023-02-15T01:17:43;0.40;99.90
43858;DHT22;29507;51.284;5.758;2023-02-15T01:20:11;0.40;99.90
43858;DHT22;29507;51.284;5.758;2023-02-15T01:22:37;0.50;99.90
43858;DHT22;29507;51.284;5.758;2023-02-15T01:25:02;0.60;99.90
43858;DHT22;29507;51.284;5.758;2023-02-15T01:27:28;0.60;99.90
43858;DHT22;29507;51.284;5.758;2023-02-15T01:29:56;0.60;99.90
43858;DHT22;29507;51.284;5.758;2023-02-15T01:32:22;0.60;99.90
43858;DHT22;29507;51.284;5.758;2023-02-15T01:34:47;0.60;99.90
43858;DHT22;29507;51.284;5.758;2023-02-15T01:37:13;0.50;99.90
43858;DHT22;29507;51.284;5.758;2023-02-15T01:39:38;0.50;99.90
43858;DHT22;29507;51.284;5.758;2023-02-15T01:42:04;0.50;99.90
43858;DHT22;29507;51.284;5.758;2023-02-15T01:44:50;0.50;99.90
43858;DHT22;29507;51.284;5.758;2023-02-15T01:47:39;0.50;99.90
43858;DHT22;29507;51.284;5.758;2023-02-15T01:53:08;0.50;99.90
43858;DHT22;29507;51.284;5.758;2023-02-15T01:55:40;0.60;99.90
43858;DHT22;29507;51.284;5.758;2023-02-15T01:58:07;0.60;99.90
43858;DHT22;29507;51.284;5.758;2023-02-15T02:00:34;0.60;99.90
43858;DHT22;29507;51.284;5.758;2023-02-15T02:03:00;0.60;99.90
43858;DHT22;29507;51.284;5.758;2023-02-15T02:05:27;0.50;99.90
43858;DHT22;29507;51.284;5.758;2023-02-15T02:07:56;0.50;99.90
43858;DHT22;29507;51.284;5.758;2023-02-15T02:10:24;0.40;99.90
43858;DHT22;29507;51.284;5.758;2023-02-15T02:12:53;0.40;99.90
43858;DHT22;29507;51.284;5.758;2023-02-15T02:15:31;0.40;99.90
43858;DHT22;29507;51.284;5.758;2023-02-15T02:26:59;0.40;99.90
43858;DHT22;29507;51.284;5.758;2023-02-15T02:35:14;0.30;99.90
43858;DHT22;29507;51.284;5.758;2023-02-15T02:37:55;0.30;99.90
43858;DHT22;29507;51.284;5.758;2023-02-15T02:43:02;0.10;99.90
43858;DHT22;29507;51.284;5.758;2023-02-15T02:45:36;0.10;99.90
43858;DHT22;29507;51.284;5.758;2023-02-15T02:48:09;0.10;99.90
43858;DHT22;29507;51.284;5.758;2023-02-15T02:50:35;0.00;99.90
43858;DHT22;29507;51.284;5.758;2023-02-15T02:53:00;0.00;99.90
43858;DHT22;29507;51.284;5.758;2023-02-15T03:00:31;0.00;99.90
43858;DHT22;29507;51.284;5.758;2023-02-15T03:03:04;0.00;99.90
43858;DHT22;29507;51.284;5.758;2023-02-15T03:05:33;0.00;99.90
43858;DHT22;29507;51.284;5.758;2023-02-15T03:08:01;-0.10;99.90
43858;DHT22;29507;51.284;5.758;2023-02-15T03:10:32;-0.10;99.90
43858;DHT22;29507;51.284;5.758;2023-02-15T03:12:59;0.00;99.90
43858;DHT22;29507;51.284;5.758;2023-02-15T03:15:30;0.00;99.90
43858;DHT22;29507;51.284;5.758;2023-02-15T03:18:20;0.00;99.90
43858;DHT22;29507;51.284;5.758;2023-02-15T03:20:48;0.10;99.90
43858;DHT22;29507;51.284;5.758;2023-02-15T03:23:21;0.10;99.90
43858;DHT22;29507;51.284;5.758;2023-02-15T03:25:51;0.00;99.90
43858;DHT22;29507;51.284;5.758;2023-02-15T03:28:29;0.00;99.90
43858;DHT22;29507;51.284;5.758;2023-02-15T03:31:00;-0.10;99.90
43858;DHT22;29507;51.284;5.758;2023-02-15T03:33:28;-0.10;99.90
43858;DHT22;29507;51.284;5.758;2023-02-15T03:36:08;-0.10;99.90
43858;DHT22;29507;51.284;5.758;2023-02-15T03:41:31;0.00;99.90
43858;DHT22;29507;51.284;5.758;2023-02-15T03:44:04;-0.10;99.90
43858;DHT22;29507;51.284;5.758;2023-02-15T03:46:47;0.00;99.90
43858;DHT22;29507;51.284;5.758;2023-02-15T03:51:48;-0.10;99.90
43858;DHT22;29507;51.284;5.758;2023-02-15T03:54:22;-0.20;99.90
43858;DHT22;29507;51.284;5.758;2023-02-15T03:57:19;-0.20;99.90
43858;DHT22;29507;51.284;5.758;2023-02-15T04:00:16;-0.30;99.90
43858;DHT22;29507;51.284;5.758;2023-02-15T04:05:33;-0.20;99.90
43858;DHT22;29507;51.284;5.758;2023-02-15T04:07:59;-0.30;99.90
43858;DHT22;29507;51.284;5.758;2023-02-15T04:10:24;-0.30;99.90
43858;DHT22;29507;51.284;5.758;2023-02-15T04:13:08;-0.40;99.90
43858;DHT22;29507;51.284;5.758;2023-02-15T04:15:34;-0.40;99.90
43858;DHT22;29507;51.284;5.758;2023-02-15T04:18:18;-0.40;99.90
43858;DHT22;29507;51.284;5.758;2023-02-15T04:20:45;-0.40;99.90
43858;DHT22;29507;51.284;5.758;2023-02-15T04:23:29;-0.40;99.90
43858;DHT22;29507;51.284;5.758;2023-02-15T04:26:13;-0.30;99.90
43858;DHT22;29507;51.284;5.758;2023-02-15T04:28:38;-0.40;99.90
43858;DHT22;29507;51.284;5.758;2023-02-15T04:31:04;-0.30;99.90
43858;DHT22;29507;51.284;5.758;2023-02-15T04:33:29;-0.30;99.90
43858;DHT22;29507;51.284;5.758;2023-02-15T04:35:55;-0.40;99.90
43858;DHT22;29507;51.284;5.758;2023-02-15T04:38:22;-0.40;99.90
43858;DHT22;29507;51.284;5.758;2023-02-15T04:40:51;-0.40;99.90
43858;DHT22;29507;51.284;5.758;2023-02-15T04:43:18;-0.50;99.90
43858;DHT22;29507;51.284;5.758;2023-02-15T04:45:53;-0.50;99.90
43858;DHT22;29507;51.284;5.758;2023-02-15T04:48:18;-0.50;99.90
43858;DHT22;29507;51.284;5.758;2023-02-15T04:50:44;-0.60;99.90
43858;DHT22;29507;51.284;5.758;2023-02-15T04:53:10;-0.70;99.90
43858;DHT22;29507;51.284;5.758;2023-02-15T04:55:36;-0.80;99.90
43858;DHT22;29507;51.284;5.758;2023-02-15T04:58:02;-0.80;99.90
43858;DHT22;29507;51.284;5.758;2023-02-15T05:00:27;-0.80;99.90
43858;DHT22;29507;51.284;5.758;2023-02-15T05:02:53;-0.90;99.90
43858;DHT22;29507;51.284;5.758;2023-02-15T05:05:19;-0.90;99.90
43858;DHT22;29507;51.284;5.758;2023-02-15T05:07:44;-0.90;99.90
43858;DHT22;29507;51.284;5.758;2023-02-15T05:10:10;-0.90;99.90
43858;DHT22;29507;51.284;5.758;2023-02-15T05:12:35;-0.90;99.90
43858;DHT22;29507;51.284;5.758;2023-02-15T05:15:01;-0.80;99.90
43858;DHT22;29507;51.284;5.758;2023-02-15T05:17:27;-0.80;99.90
43858;DHT22;29507;51.284;5.758;2023-02-15T05:19:52;-0.80;99.90
43858;DHT22;29507;51.284;5.758;2023-02-15T05:22:18;-0.80;99.90
43858;DHT22;29507;51.284;5.758;2023-02-15T05:24:43;-0.70;99.90
43858;DHT22;29507;51.284;5.758;2023-02-15T05:27:27;-0.70;99.90
43858;DHT22;29507;51.284;5.758;2023-02-15T05:30:12;-0.70;99.90
43858;DHT22;29507;51.284;5.758;2023-02-15T05:32:38;-0.70;99.90
43858;DHT22;29507;51.284;5.758;2023-02-15T05:35:05;-0.70;99.90
43858;DHT22;29507;51.284;5.758;2023-02-15T05:37:31;-0.70;99.90
43858;DHT22;29507;51.284;5.758;2023-02-15T05:39:56;-0.70;99.90
43858;DHT22;29507;51.284;5.758;2023-02-15T05:42:22;-0.80;99.90
43858;DHT22;29507;51.284;5.758;2023-02-15T05:44:47;-0.80;99.90
43858;DHT22;29507;51.284;5.758;2023-02-15T05:47:13;-0.80;99.90
43858;DHT22;29507;51.284;5.758;2023-02-15T05:49:38;-0.90;99.90
43858;DHT22;29507;51.284;5.758;2023-02-15T05:52:04;-0.90;99.90
43858;DHT22;29507;51.284;5.758;2023-02-15T05:54:30;-0.90;99.90
43858;DHT22;29507;51.284;5.758;2023-02-15T05:56:55;-1.00;99.90
43858;DHT22;29507;51.284;5.758;2023-02-15T05:59:21;-1.10;99.90
43858;DHT22;29507;51.284;5.758;2023-02-15T06:01:46;-1.10;99.90
43858;DHT22;29507;51.284;5.758;2023-02-15T06:04:13;-1.20;99.90
43858;DHT22;29507;51.284;5.758;2023-02-15T06:06:38;-1.20;99.90
43858;DHT22;29507;51.284;5.758;2023-02-15T06:09:04;-1.20;99.90
43858;DHT22;29507;51.284;5.758;2023-02-15T06:11:30;-1.20;99.90
43858;DHT22;29507;51.284;5.758;2023-02-15T06:13:55;-1.20;99.90
43858;DHT22;29507;51.284;5.758;2023-02-15T06:16:21;-1.30;99.90
43858;DHT22;29507;51.284;5.758;2023-02-15T06:18:47;-1.20;99.90
43858;DHT22;29507;51.284;5.758;2023-02-15T06:21:12;-1.20;99.90
43858;DHT22;29507;51.284;5.758;2023-02-15T06:23:38;-1.20;99.90
43858;DHT22;29507;51.284;5.758;2023-02-15T06:26:04;-1.10;99.90
43858;DHT22;29507;51.284;5.758;2023-02-15T06:28:29;-1.10;99.90
43858;DHT22;29507;51.284;5.758;2023-02-15T06:30:55;-1.10;99.90
43858;DHT22;29507;51.284;5.758;2023-02-15T06:33:21;-1.10;99.90
43858;DHT22;29507;51.284;5.758;2023-02-15T06:35:46;-1.10;99.90
43858;DHT22;29507;51.284;5.758;2023-02-15T06:38:12;-1.20;99.90
43858;DHT22;29507;51.284;5.758;2023-02-15T06:40:38;-1.20;99.90
43858;DHT22;29507;51.284;5.758;2023-02-15T06:43:03;-1.30;99.90
43858;DHT22;29507;51.284;5.758;2023-02-15T06:45:29;-1.40;99.90
43858;DHT22;29507;51.284;5.758;2023-02-15T06:47:55;-1.30;99.90
43858;DHT22;29507;51.284;5.758;2023-02-15T06:50:21;-1.30;99.90
43858;DHT22;29507;51.284;5.758;2023-02-15T06:52:47;-1.30;99.90
43858;DHT22;29507;51.284;5.758;2023-02-15T06:55:12;-1.40;99.90
43858;DHT22;29507;51.284;5.758;2023-02-15T06:57:38;-1.40;99.90
43858;DHT22;29507;51.284;5.758;2023-02-15T07:00:04;-1.40;99.90
43858;DHT22;29507;51.284;5.758;2023-02-15T07:02:30;-1.40;99.90
43858;DHT22;29507;51.284;5.758;2023-02-15T07:04:56;-1.40;99.90
43858;DHT22;29507;51.284;5.758;2023-02-15T07:07:22;-1.30;99.90
43858;DHT22;29507;51.284;5.758;2023-02-15T07:09:48;-1.20;99.90
43858;DHT22;29507;51.284;5.758;2023-02-15T07:12:14;-1.20;99.90
43858;DHT22;29507;51.284;5.758;2023-02-15T07:14:58;-1.20;99.90
43858;DHT22;29507;51.284;5.758;2023-02-15T07:17:24;-1.10;99.90
43858;DHT22;29507;51.284;5.758;2023-02-15T07:19:49;-1.10;99.90
43858;DHT22;29507;51.284;5.758;2023-02-15T07:22:15;-1.10;99.90
43858;DHT22;29507;51.284;5.758;2023-02-15T07:24:40;-0.90;99.90
43858;DHT22;29507;51.284;5.758;2023-02-15T07:27:07;-0.90;99.90
43858;DHT22;29507;51.284;5.758;2023-02-15T07:29:33;-0.80;99.90
43858;DHT22;29507;51.284;5.758;2023-02-15T07:31:58;-0.80;99.90
43858;DHT22;29507;51.284;5.758;2023-02-15T07:34:24;-0.70;99.90
43858;DHT22;29507;51.284;5.758;2023-02-15T07:36:52;-0.60;99.90
43858;DHT22;29507;51.284;5.758;2023-02-15T07:39:19;-0.50;99.90
43858;DHT22;29507;51.284;5.758;2023-02-15T07:41:45;-0.40;99.90
43858;DHT22;29507;51.284;5.758;2023-02-15T07:44:14;-0.30;99.90
43858;DHT22;29507;51.284;5.758;2023-02-15T07:46:43;-0.30;99.90
43858;DHT22;29507;51.284;5.758;2023-02-15T07:49:08;-0.20;99.90
43858;DHT22;29507;51.284;5.758;2023-02-15T07:51:34;-0.10;99.90
43858;DHT22;29507;51.284;5.758;2023-02-15T07:53:59;0.00;99.90
43858;DHT22;29507;51.284;5.758;2023-02-15T07:56:25;0.00;99.90
43858;DHT22;29507;51.284;5.758;2023-02-15T07:58:51;0.00;99.90
43858;DHT22;29507;51.284;5.758;2023-02-15T08:01:24;0.10;99.90
43858;DHT22;29507;51.284;5.758;2023-02-15T08:03:52;0.20;99.90
43858;DHT22;29507;51.284;5.758;2023-02-15T08:06:18;0.20;99.90
43858;DHT22;29507;51.284;5.758;2023-02-15T08:08:43;0.30;99.90
43858;DHT22;29507;51.284;5.758;2023-02-15T08:14:17;0.40;99.90
43858;DHT22;29507;51.284;5.758;2023-02-15T08:21:48;0.60;99.90
43858;DHT22;29507;51.284;5.758;2023-02-15T08:24:16;0.70;99.90
43858;DHT22;29507;51.284;5.758;2023-02-15T08:26:42;0.80;99.90
43858;DHT22;29507;51.284;5.758;2023-02-15T08:29:10;0.90;99.90
43858;DHT22;29507;51.284;5.758;2023-02-15T08:31:36;1.00;99.90
43858;DHT22;29507;51.284;5.758;2023-02-15T08:34:03;1.10;99.90
43858;DHT22;29507;51.284;5.758;2023-02-15T08:36:31;1.20;99.90
43858;DHT22;29507;51.284;5.758;2023-02-15T08:38:58;1.30;99.90
43858;DHT22;29507;51.284;5.758;2023-02-15T08:41:29;1.40;99.90
43858;DHT22;29507;51.284;5.758;2023-02-15T08:43:58;1.50;99.90
43858;DHT22;29507;51.284;5.758;2023-02-15T08:46:26;1.50;99.90
43858;DHT22;29507;51.284;5.758;2023-02-15T08:48:52;1.60;99.90
43858;DHT22;29507;51.284;5.758;2023-02-15T08:51:25;1.70;99.90
43858;DHT22;29507;51.284;5.758;2023-02-15T08:53:55;1.90;99.90
43858;DHT22;29507;51.284;5.758;2023-02-15T08:56:23;2.00;99.90
43858;DHT22;29507;51.284;5.758;2023-02-15T08:58:49;2.10;99.90
43858;DHT22;29507;51.284;5.758;2023-02-15T09:01:17;2.20;99.90
43858;DHT22;29507;51.284;5.758;2023-02-15T09:03:46;2.30;99.90
43858;DHT22;29507;51.284;5.758;2023-02-15T09:06:12;2.40;99.90
43858;DHT22;29507;51.284;5.758;2023-02-15T09:08:39;2.60;99.90
43858;DHT22;29507;51.284;5.758;2023-02-15T09:11:07;2.70;99.90
43858;DHT22;29507;51.284;5.758;2023-02-15T09:13:33;2.90;99.90
43858;DHT22;29507;51.284;5.758;2023-02-15T09:16:03;3.10;99.90
43858;DHT22;29507;51.284;5.758;2023-02-15T09:18:32;3.20;99.90
43858;DHT22;29507;51.284;5.758;2023-02-15T09:21:10;3.30;99.90
43858;DHT22;29507;51.284;5.758;2023-02-15T09:23:42;3.40;99.90
43858;DHT22;29507;51.284;5.758;2023-02-15T09:26:13;3.60;99.90
43858;DHT22;29507;51.284;5.758;2023-02-15T09:28:39;3.70;99.90
43858;DHT22;29507;51.284;5.758;2023-02-15T09:31:16;3.80;99.90
43858;DHT22;29507;51.284;5.758;2023-02-15T09:33:44;4.00;99.90
43858;DHT22;29507;51.284;5.758;2023-02-15T09:38:48;5.10;99.90
43858;DHT22;29507;51.284;5.758;2023-02-15T09:41:18;5.50;99.90
43858;DHT22;29507;51.284;5.758;2023-02-15T09:49:30;5.20;99.90
43858;DHT22;29507;51.284;5.758;2023-02-15T09:52:08;5.20;99.90
43858;DHT22;29507;51.284;5.758;2023-02-15T09:54:50;5.30;99.90
43858;DHT22;29507;51.284;5.758;2023-02-15T10:02:51;6.40;99.90
43858;DHT22;29507;51.284;5.758;2023-02-15T10:05:25;6.80;99.90
43858;DHT22;29507;51.284;5.758;2023-02-15T10:14:37;9.70;99.90
43858;DHT22;29507;51.284;5.758;2023-02-15T10:22:36;10.70;99.90
43858;DHT22;29507;51.284;5.758;2023-02-15T10:26:11;10.70;99.90
43858;DHT22;29507;51.284;5.758;2023-02-15T10:28:19;10.60;99.90
43858;DHT22;29507;51.284;5.758;2023-02-15T10:30:50;10.80;99.90
43858;DHT22;29507;51.284;5.758;2023-02-15T10:33:39;10.70;99.90
43858;DHT22;29507;51.284;5.758;2023-02-15T10:37:10;10.20;99.90
43858;DHT22;29507;51.284;5.758;2023-02-15T10:42:14;10.30;99.90
43858;DHT22;29507;51.284;5.758;2023-02-15T10:44:56;10.30;99.90
43858;DHT22;29507;51.284;5.758;2023-02-15T10:50:20;10.70;99.90
43858;DHT22;29507;51.284;5.758;2023-02-15T11:06:21;11.60;99.90
43858;DHT22;29507;51.284;5.758;2023-02-15T11:09:10;12.00;99.90
43858;DHT22;29507;51.284;5.758;2023-02-15T11:11:39;12.60;99.90
43858;DHT22;29507;51.284;5.758;2023-02-15T11:17:00;12.70;99.70
43858;DHT22;29507;51.284;5.758;2023-02-15T11:19:37;12.90;99.10
43858;DHT22;29507;51.284;5.758;2023-02-15T11:22:06;12.70;96.90
43858;DHT22;29507;51.284;5.758;2023-02-15T11:24:46;12.60;97.40
43858;DHT22;29507;51.284;5.758;2023-02-15T11:27:20;12.70;97.30
43858;DHT22;29507;51.284;5.758;2023-02-15T11:30:05;13.00;96.60
43858;DHT22;29507;51.284;5.758;2023-02-15T11:32:45;13.40;95.60
43858;DHT22;29507;51.284;5.758;2023-02-15T11:37:54;12.80;95.40
43858;DHT22;29507;51.284;5.758;2023-02-15T11:40:31;13.10;95.80
43858;DHT22;29507;51.284;5.758;2023-02-15T11:43:15;13.80;95.20
43858;DHT22;29507;51.284;5.758;2023-02-15T11:45:44;14.60;94.40
43858;DHT22;29507;51.284;5.758;2023-02-15T11:48:12;15.30;92.10
43858;DHT22;29507;51.284;5.758;2023-02-15T11:50:39;15.80;91.00
43858;DHT22;29507;51.284;5.758;2023-02-15T11:53:18;15.70;90.00
43858;DHT22;29507;51.284;5.758;2023-02-15T11:55:45;16.00;89.00
43858;DHT22;29507;51.284;5.758;2023-02-15T12:00:51;16.00;85.00
43858;DHT22;29507;51.284;5.758;2023-02-15T12:03:22;15.40;85.20
43858;DHT22;29507;51.284;5.758;2023-02-15T12:06:01;15.30;87.10
43858;DHT22;29507;51.284;5.758;2023-02-15T12:08:40;15.50;86.40
43858;DHT22;29507;51.284;5.758;2023-02-15T12:11:15;15.90;85.70
43858;DHT22;29507;51.284;5.758;2023-02-15T12:14:10;16.20;84.30
43858;DHT22;29507;51.284;5.758;2023-02-15T12:16:56;16.40;83.40
43858;DHT22;29507;51.284;5.758;2023-02-15T12:21:51;17.60;80.90
43858;DHT22;29507;51.284;5.758;2023-02-15T12:24:25;17.90;79.70
43858;DHT22;29507;51.284;5.758;2023-02-15T12:27:15;17.70;77.60
43858;DHT22;29507;51.284;5.758;2023-02-15T12:29:46;18.10;77.80
43858;DHT22;29507;51.284;5.758;2023-02-15T12:32:28;18.90;76.60
43858;DHT22;29507;51.284;5.758;2023-02-15T12:35:00;19.60;74.10
43858;DHT22;29507;51.284;5.758;2023-02-15T12:37:29;19.10;74.30
43858;DHT22;29507;51.284;5.758;2023-02-15T12:40:01;18.80;73.60
43858;DHT22;29507;51.284;5.758;2023-02-15T12:42:43;19.00;74.60
43858;DHT22;29507;51.284;5.758;2023-02-15T12:45:31;18.60;74.10
43858;DHT22;29507;51.284;5.758;2023-02-15T12:50:36;18.60;73.90
43858;DHT22;29507;51.284;5.758;2023-02-15T12:53:31;19.00;73.10
43858;DHT22;29507;51.284;5.758;2023-02-15T12:56:05;19.50;73.50
43858;DHT22;29507;51.284;5.758;2023-02-15T12:58:39;20.20;71.00
43858;DHT22;29507;51.284;5.758;2023-02-15T13:01:19;20.30;70.80
43858;DHT22;29507;51.284;5.758;2023-02-15T13:03:59;20.60;70.00
43858;DHT22;29507;51.284;5.758;2023-02-15T13:06:27;20.70;70.70
43858;DHT22;29507;51.284;5.758;2023-02-15T13:08:55;21.00;69.30
43858;DHT22;29507;51.284;5.758;2023-02-15T13:11:27;20.80;68.00
43858;DHT22;29507;51.284;5.758;2023-02-15T13:13:55;20.90;67.80
43858;DHT22;29507;51.284;5.758;2023-02-15T13:16:33;20.80;68.30
43858;DHT22;29507;51.284;5.758;2023-02-15T13:19:19;21.40;66.80
43858;DHT22;29507;51.284;5.758;2023-02-15T13:21:50;21.90;66.30
43858;DHT22;29507;51.284;5.758;2023-02-15T13:24:39;22.20;64.90
43858;DHT22;29507;51.284;5.758;2023-02-15T13:27:12;21.20;65.40
43858;DHT22;29507;51.284;5.758;2023-02-15T13:29:52;20.20;67.80
43858;DHT22;29507;51.284;5.758;2023-02-15T13:34:48;18.80;69.60
43858;DHT22;29507;51.284;5.758;2023-02-15T13:40:20;17.30;73.30
43858;DHT22;29507;51.284;5.758;2023-02-15T13:42:59;16.60;75.10
43858;DHT22;29507;51.284;5.758;2023-02-15T13:59:31;18.30;66.00
43858;DHT22;29507;51.284;5.758;2023-02-15T14:04:51;17.50;67.20
43858;DHT22;29507;51.284;5.758;2023-02-15T14:07:52;17.00;66.70
43858;DHT22;29507;51.284;5.758;2023-02-15T14:15:49;17.00;68.10
43858;DHT22;29507;51.284;5.758;2023-02-15T14:31:45;16.60;66.90
43858;DHT22;29507;51.284;5.758;2023-02-15T14:34:29;16.10;68.40
43858;DHT22;29507;51.284;5.758;2023-02-15T14:36:55;15.70;69.50
43858;DHT22;29507;51.284;5.758;2023-02-15T14:39:44;15.30;70.20
43858;DHT22;29507;51.284;5.758;2023-02-15T14:42:43;15.10;71.50
43858;DHT22;29507;51.284;5.758;2023-02-15T14:45:30;14.80;72.40
43858;DHT22;29507;51.284;5.758;2023-02-15T14:50:42;14.40;73.10
43858;DHT22;29507;51.284;5.758;2023-02-15T14:58:55;14.70;72.80
43858;DHT22;29507;51.284;5.758;2023-02-15T15:01:40;14.90;73.30
43858;DHT22;29507;51.284;5.758;2023-02-15T15:04:11;15.40;72.70
43858;DHT22;29507;51.284;5.758;2023-02-15T15:06:41;15.40;72.20
43858;DHT22;29507;51.284;5.758;2023-02-15T15:09:27;15.20;72.50
43858;DHT22;29507;51.284;5.758;2023-02-15T15:14:40;14.70;73.70
43858;DHT22;29507;51.284;5.758;2023-02-15T15:17:10;14.20;74.90
43858;DHT22;29507;51.284;5.758;2023-02-15T15:22:22;13.70;77.10
43858;DHT22;29507;51.284;5.758;2023-02-15T15:24:51;13.40;78.00
43858;DHT22;29507;51.284;5.758;2023-02-15T15:30:46;13.10;79.60
43858;DHT22;29507;51.284;5.758;2023-02-15T15:33:21;12.90;79.90
43858;DHT22;29507;51.284;5.758;2023-02-15T15:49:30;11.90;84.10
43858;DHT22;29507;51.284;5.758;2023-02-15T15:52:00;11.70;84.80
43858;DHT22;29507;51.284;5.758;2023-02-15T15:54:27;11.70;85.50
43858;DHT22;29507;51.284;5.758;2023-02-15T15:57:02;11.70;85.50
43858;DHT22;29507;51.284;5.758;2023-02-15T15:59:33;11.60;86.20
43858;DHT22;29507;51.284;5.758;2023-02-15T16:02:13;11.50;86.50
43858;DHT22;29507;51.284;5.758;2023-02-15T16:04:41;11.40;87.50
43858;DHT22;29507;51.284;5.758;2023-02-15T16:07:33;11.20;87.90
43858;DHT22;29507;51.284;5.758;2023-02-15T16:10:07;11.00;88.80
43858;DHT22;29507;51.284;5.758;2023-02-15T16:12:34;11.00;89.20
43858;DHT22;29507;51.284;5.758;2023-02-15T16:15:04;10.80;90.00
43858;DHT22;29507;51.284;5.758;2023-02-15T16:17:37;10.80;90.60
43858;DHT22;29507;51.284;5.758;2023-02-15T16:22:45;10.80;91.40
43858;DHT22;29507;51.284;5.758;2023-02-15T16:27:40;10.70;92.40
43858;DHT22;29507;51.284;5.758;2023-02-15T16:30:31;10.70;92.90
43858;DHT22;29507;51.284;5.758;2023-02-15T16:33:12;10.60;93.80
43858;DHT22;29507;51.284;5.758;2023-02-15T16:35:59;10.50;94.40
43858;DHT22;29507;51.284;5.758;2023-02-15T16:41:25;10.20;96.80
43858;DHT22;29507;51.284;5.758;2023-02-15T16:43:53;10.10;97.50
43858;DHT22;29507;51.284;5.758;2023-02-15T16:46:28;10.00;99.50
43858;DHT22;29507;51.284;5.758;2023-02-15T16:48:58;9.90;99.90
43858;DHT22;29507;51.284;5.758;2023-02-15T16:51:28;9.80;99.90
43858;DHT22;29507;51.284;5.758;2023-02-15T16:53:56;9.70;99.90
43858;DHT22;29507;51.284;5.758;2023-02-15T16:56:27;9.60;99.90
43858;DHT22;29507;51.284;5.758;2023-02-15T16:58:56;9.40;99.90
43858;DHT22;29507;51.284;5.758;2023-02-15T17:01:24;9.30;99.90
43858;DHT22;29507;51.284;5.758;2023-02-15T17:04:11;9.30;99.90
43858;DHT22;29507;51.284;5.758;2023-02-15T17:06:37;9.20;99.90
43858;DHT22;29507;51.284;5.758;2023-02-15T17:09:14;9.00;99.90
43858;DHT22;29507;51.284;5.758;2023-02-15T17:11:44;8.90;99.90
43858;DHT22;29507;51.284;5.758;2023-02-15T17:14:12;8.90;99.90
43858;DHT22;29507;51.284;5.758;2023-02-15T17:16:48;8.80;99.90
43858;DHT22;29507;51.284;5.758;2023-02-15T17:19:23;8.80;99.90
43858;DHT22;29507;51.284;5.758;2023-02-15T17:21:58;8.80;99.90
43858;DHT22;29507;51.284;5.758;2023-02-15T17:26:55;8.60;99.90
43858;DHT22;29507;51.284;5.758;2023-02-15T17:29:31;8.60;99.90
43858;DHT22;29507;51.284;5.758;2023-02-15T17:31:58;8.50;99.90
43858;DHT22;29507;51.284;5.758;2023-02-15T17:34:44;8.50;99.90
43858;DHT22;29507;51.284;5.758;2023-02-15T17:37:13;8.50;99.90
43858;DHT22;29507;51.284;5.758;2023-02-15T17:39:38;8.40;99.90
43858;DHT22;29507;51.284;5.758;2023-02-15T17:42:05;8.40;99.90
43858;DHT22;29507;51.284;5.758;2023-02-15T17:44:31;8.40;99.90
43858;DHT22;29507;51.284;5.758;2023-02-15T17:46:57;8.20;99.90
43858;DHT22;29507;51.284;5.758;2023-02-15T17:49:24;8.20;99.90
43858;DHT22;29507;51.284;5.758;2023-02-15T17:51:53;8.10;99.90
43858;DHT22;29507;51.284;5.758;2023-02-15T17:54:19;8.00;99.90
43858;DHT22;29507;51.284;5.758;2023-02-15T17:57:11;7.90;99.90
43858;DHT22;29507;51.284;5.758;2023-02-15T17:59:37;7.70;99.90
43858;DHT22;29507;51.284;5.758;2023-02-15T18:02:21;7.70;99.90
43858;DHT22;29507;51.284;5.758;2023-02-15T18:05:14;7.50;99.90
43858;DHT22;29507;51.284;5.758;2023-02-15T18:07:59;7.40;99.90
43858;DHT22;29507;51.284;5.758;2023-02-15T18:10:43;7.30;99.90
43858;DHT22;29507;51.284;5.758;2023-02-15T18:13:27;7.20;99.90
43858;DHT22;29507;51.284;5.758;2023-02-15T18:15:53;7.20;99.90
43858;DHT22;29507;51.284;5.758;2023-02-15T18:18:19;7.10;99.90
43858;DHT22;29507;51.284;5.758;2023-02-15T18:20:45;7.20;99.90
43858;DHT22;29507;51.284;5.758;2023-02-15T18:23:13;7.10;99.90
43858;DHT22;29507;51.284;5.758;2023-02-15T18:25:38;7.10;99.90
43858;DHT22;29507;51.284;5.758;2023-02-15T18:28:04;7.10;99.90
43858;DHT22;29507;51.284;5.758;2023-02-15T18:30:31;7.10;99.90
43858;DHT22;29507;51.284;5.758;2023-02-15T18:32:58;7.20;99.90
43858;DHT22;29507;51.284;5.758;2023-02-15T18:35:28;7.10;99.90
43858;DHT22;29507;51.284;5.758;2023-02-15T18:37:55;7.00;99.90
43858;DHT22;29507;51.284;5.758;2023-02-15T18:40:29;7.00;99.90
43858;DHT22;29507;51.284;5.758;2023-02-15T18:42:55;7.00;99.90
43858;DHT22;29507;51.284;5.758;2023-02-15T18:45:24;7.00;99.90
43858;DHT22;29507;51.284;5.758;2023-02-15T18:47:53;7.00;99.90
43858;DHT22;29507;51.284;5.758;2023-02-15T18:50:21;7.00;99.90
43858;DHT22;29507;51.284;5.758;2023-02-15T18:52:47;7.00;99.90
43858;DHT22;29507;51.284;5.758;2023-02-15T18:55:19;7.00;99.90
43858;DHT22;29507;51.284;5.758;2023-02-15T18:57:46;7.00;99.90
43858;DHT22;29507;51.284;5.758;2023-02-15T19:00:21;7.10;99.90
43858;DHT22;29507;51.284;5.758;2023-02-15T19:02:49;7.10;99.90
43858;DHT22;29507;51.284;5.758;2023-02-15T19:05:15;7.10;99.90